^^
Datos históricos de la estación: Murcia-Puente Tocinos
Diario Informe para Abril 24, 2019 Unidades:  Ambas    Inglés   Métrico
Diario Semanal Mensual Anual Configurable
  Máximo: Mínimo: Media:
Temperatura: 68.7 °F /  20.4 °C 48.7 °F /  9.3 °C 59.7 °F /  15.4 °C
Punto de rocio: 52.3 °F /  11.3 °C 37 °F /  2.8 °C 43.9 °F /  6.6 °C
Humedad: 76% 36% 57%
Velocidad viento: 14mph /  22.5km/h - 5.7mph /  9.2km/h
Racha viento: 24mph /  38.6km/h - -
Viento- - South
Presión: 29.8 in /  1010.5 hPa 29.6 in /  1003.9 hPa -
Precipitación: 0 in /  0.0 mm    
Historical Graphs
 
 
Tabla de datos para Abril 24, 2019
Hora Temperatura Punto de rocio Presión Viento Velocidad viento Racha viento Humedad Intensidad lluvia(por hora) Nubes
00:00 59.2 °F /  15.1 °C 41.2 °F /  5.1 °C 29.6in /  1003.9hPa SW 6mph /  9.7km/h 12mph /  19.3km/h 51% 0in /  0.0mm RA
00:05 59 °F /  15.0 °C 40.5 °F /  4.7 °C 29.7in /  1004.1hPa WNW 5.9mph /  9.5km/h 6.9mph /  11.1km/h 50% 0in /  0.0mm RA
00:10 58.8 °F /  14.9 °C 41.2 °F /  5.1 °C 29.7in /  1004.1hPa NW 6.4mph /  10.3km/h 8.1mph /  13.0km/h 52% 0in /  0.0mm CLR
00:15 58.6 °F /  14.8 °C 41.5 °F /  5.3 °C 29.7in /  1004.1hPa NW 6.4mph /  10.3km/h 4.6mph /  7.4km/h 53% 0in /  0.0mm CLR
00:20 58.3 °F /  14.6 °C 40.3 °F /  4.6 °C 29.7in /  1004.4hPa NW 4mph /  6.4km/h 6.9mph /  11.1km/h 51% 0in /  0.0mm CLR
00:25 57.9 °F /  14.4 °C 40.5 °F /  4.7 °C 29.7in /  1004.4hPa NNW 4mph /  6.4km/h 8.1mph /  13.0km/h 52% 0in /  0.0mm CLR
00:30 57.6 °F /  14.2 °C 39.6 °F /  4.2 °C 29.7in /  1004.4hPa WNW 5.2mph /  8.4km/h 9.2mph /  14.8km/h 51% 0in /  0.0mm CLR
00:35 57.6 °F /  14.2 °C 39.6 °F /  4.2 °C 29.7in /  1004.7hPa West 5.2mph /  8.4km/h 6.9mph /  11.1km/h 51% 0in /  0.0mm CLR
00:40 57.4 °F /  14.1 °C 39.9 °F /  4.4 °C 29.7in /  1004.7hPa West 4.3mph /  6.9km/h 3.5mph /  5.6km/h 52% 0in /  0.0mm CLR
00:45 57.2 °F /  14.0 °C 39.7 °F /  4.3 °C 29.7in /  1004.7hPa West 4.3mph /  6.9km/h 4.6mph /  7.4km/h 52% 0in /  0.0mm CLR
00:50 57 °F /  13.9 °C 39.9 °F /  4.4 °C 29.7in /  1004.8hPa West 1.8mph /  2.9km/h 4.6mph /  7.4km/h 53% 0in /  0.0mm CLR
00:55 56.8 °F /  13.8 °C 39.9 °F /  4.4 °C 29.7in /  1004.8hPa SW 1.8mph /  2.9km/h 5.8mph /  9.3km/h 53% 0in /  0.0mm CLR
01:00 56.7 °F /  13.7 °C 40.3 °F /  4.6 °C 29.7in /  1004.8hPa WSW 3mph /  4.8km/h 7mph /  11.3km/h 54% 0in /  0.0mm CLR
01:05 56.5 °F /  13.6 °C 39.9 °F /  4.4 °C 29.7in /  1004.9hPa West 3mph /  4.8km/h 8mph /  12.9km/h 54% 0in /  0.0mm CLR
01:10 56.1 °F /  13.4 °C 40.3 °F /  4.6 °C 29.7in /  1004.9hPa West 3mph /  4.8km/h 7mph /  11.3km/h 55% 0in /  0.0mm CLR
01:15 55.9 °F /  13.3 °C 40.5 °F /  4.7 °C 29.7in /  1004.9hPa NW 3.6mph /  5.8km/h 4.6mph /  7.4km/h 56% 0in /  0.0mm CLR
01:20 55.6 °F /  13.1 °C 40.6 °F /  4.8 °C 29.7in /  1005.1hPa WNW 3.1mph /  5.0km/h 8.1mph /  13.0km/h 57% 0in /  0.0mm CLR
01:25 55.2 °F /  12.9 °C 40.3 °F /  4.6 °C 29.7in /  1005.1hPa NW 3mph /  4.8km/h 8mph /  12.9km/h 57% 0in /  0.0mm CLR
01:30 55 °F /  12.8 °C 40.5 °F /  4.7 °C 29.7in /  1005.1hPa NW 4.3mph /  6.9km/h 4.6mph /  7.4km/h 58% 0in /  0.0mm CLR
01:35 55 °F /  12.8 °C 40.5 °F /  4.7 °C 29.7in /  1005.1hPa NW 5mph /  8.0km/h 6mph /  9.7km/h 58% 0in /  0.0mm CLR
01:40 54.9 °F /  12.7 °C 40.8 °F /  4.9 °C 29.7in /  1005.1hPa NW 2.9mph /  4.7km/h 4.6mph /  7.4km/h 59% 0in /  0.0mm CLR
01:45 54.7 °F /  12.6 °C 40.6 °F /  4.8 °C 29.7in /  1005.1hPa NW 2.9mph /  4.7km/h 3.5mph /  5.6km/h 59% 0in /  0.0mm CLR
01:50 54.7 °F /  12.6 °C 41 °F /  5.0 °C 29.7in /  1005.2hPa NNW 1mph /  1.6km/h 5mph /  8.0km/h 60% 0in /  0.0mm CLR
01:55 54.3 °F /  12.4 °C 41.2 °F /  5.1 °C 29.7in /  1005.2hPa NNW 1.4mph /  2.3km/h 3.5mph /  5.6km/h 61% 0in /  0.0mm CLR
02:00 54.3 °F /  12.4 °C 41.2 °F /  5.1 °C 29.7in /  1005.2hPa NNE 2mph /  3.2km/h 5mph /  8.0km/h 61% 0in /  0.0mm CLR
02:05 54.1 °F /  12.3 °C 41.4 °F /  5.2 °C 29.7in /  1005.3hPa NNE 2.9mph /  4.7km/h 2.3mph /  3.7km/h 62% 0in /  0.0mm CLR
02:10 54 °F /  12.2 °C 41.2 °F /  5.1 °C 29.7in /  1005.3hPa NNE 2mph /  3.2km/h 3mph /  4.8km/h 62% 0in /  0.0mm CLR
02:15 53.8 °F /  12.1 °C 41.2 °F /  5.1 °C 29.7in /  1005.3hPa SE 1.8mph /  2.9km/h 6.9mph /  11.1km/h 62% 0in /  0.0mm CLR
02:20 53.8 °F /  12.1 °C 41.2 °F /  5.1 °C 29.7in /  1005.2hPa ESE 3mph /  4.8km/h 7mph /  11.3km/h 62% 0in /  0.0mm CLR
02:25 54 °F /  12.2 °C 41.2 °F /  5.1 °C 29.7in /  1005.2hPa ESE 3.1mph /  5.0km/h 5.8mph /  9.3km/h 62% 0in /  0.0mm CLR
02:30 53.8 °F /  12.1 °C 41.2 °F /  5.1 °C 29.7in /  1005.2hPa SSE 4.3mph /  6.9km/h 6.9mph /  11.1km/h 62% 0in /  0.0mm CLR
02:35 53.8 °F /  12.1 °C 41.2 °F /  5.1 °C 29.7in /  1005.2hPa SSE 5mph /  8.0km/h 7mph /  11.3km/h 62% 0in /  0.0mm CLR
02:40 53.8 °F /  12.1 °C 41.2 °F /  5.1 °C 29.7in /  1005.2hPa SSW 5mph /  8.0km/h 7mph /  11.3km/h 62% 0in /  0.0mm CLR
02:45 53.8 °F /  12.1 °C 41.2 °F /  5.1 °C 29.7in /  1005.2hPa SW 5mph /  8.0km/h 6mph /  9.7km/h 62% 0in /  0.0mm CLR
02:50 54 °F /  12.2 °C 40.8 °F /  4.9 °C 29.7in /  1005.3hPa WSW 3mph /  4.8km/h 6mph /  9.7km/h 61% 0in /  0.0mm CLR
02:55 54 °F /  12.2 °C 40.8 °F /  4.9 °C 29.7in /  1005.3hPa WSW 3mph /  4.8km/h 6mph /  9.7km/h 61% 0in /  0.0mm CLR
03:00 54 °F /  12.2 °C 40.8 °F /  4.9 °C 29.7in /  1005.3hPa WSW 2mph /  3.2km/h 5mph /  8.0km/h 61% 0in /  0.0mm CLR
03:05 54 °F /  12.2 °C 41.2 °F /  5.1 °C 29.7in /  1005.3hPa WSW 2mph /  3.2km/h 5mph /  8.0km/h 62% 0in /  0.0mm CLR
03:10 53.6 °F /  12.0 °C 41.7 °F /  5.4 °C 29.7in /  1005.3hPa WSW 2mph /  3.2km/h 5mph /  8.0km/h 64% 0in /  0.0mm CLR
03:15 52.5 °F /  11.4 °C 41.5 °F /  5.3 °C 29.7in /  1005.3hPa NE 2mph /  3.2km/h 6.9mph /  11.1km/h 66% 0in /  0.0mm CLR
03:20 52.2 °F /  11.2 °C 41.9 °F /  5.5 °C 29.7in /  1005.5hPa ENE 2.9mph /  4.7km/h 3.5mph /  5.6km/h 68% 0in /  0.0mm CLR
03:25 51.6 °F /  10.9 °C 41.7 °F /  5.4 °C 29.7in /  1005.5hPa ENE 2.9mph /  4.7km/h 1.4mph /  2.3km/h 69% 0in /  0.0mm CLR
03:30 51.6 °F /  10.9 °C 41.7 °F /  5.4 °C 29.7in /  1005.5hPa ENE 2mph /  3.2km/h 2mph /  3.2km/h 69% 0in /  0.0mm CLR
03:35 51.6 °F /  10.9 °C 41.7 °F /  5.4 °C 29.7in /  1005.8hPa ENE 2mph /  3.2km/h   69% 0in /  0.0mm CLR
03:40 51.6 °F /  10.9 °C 41.7 °F /  5.4 °C 29.7in /  1005.8hPa Calm   4mph /  6.4km/h 69% 0in /  0.0mm CLR
03:45 51.6 °F /  10.9 °C 41.7 °F /  5.4 °C 29.7in /  1005.8hPa Calm   2.3mph /  3.7km/h 69% 0in /  0.0mm CLR
03:50 51.8 °F /  11.0 °C 41.5 °F /  5.3 °C 29.7in /  1005.9hPa WNW 1.4mph /  2.3km/h 4.6mph /  7.4km/h 68% 0in /  0.0mm CLR
03:55 52.2 °F /  11.2 °C 41.2 °F /  5.1 °C 29.7in /  1005.9hPa WNW 1.4mph /  2.3km/h 3.5mph /  5.6km/h 66% 0in /  0.0mm CLR
04:00 52.2 °F /  11.2 °C 41.2 °F /  5.1 °C 29.7in /  1005.9hPa West 2mph /  3.2km/h 5mph /  8.0km/h 66% 0in /  0.0mm CLR
04:05 52.2 °F /  11.2 °C 41.2 °F /  5.1 °C 29.7in /  1006.1hPa West 2mph /  3.2km/h 6mph /  9.7km/h 66% 0in /  0.0mm CLR
04:10 52.2 °F /  11.2 °C 41.2 °F /  5.1 °C 29.7in /  1006.1hPa WNW 2.4mph /  3.9km/h 2.3mph /  3.7km/h 66% 0in /  0.0mm CLR
04:15 52 °F /  11.1 °C 41 °F /  5.0 °C 29.7in /  1006.1hPa WNW 2.4mph /  3.9km/h 3.5mph /  5.6km/h 66% 0in /  0.0mm CLR
04:20 52 °F /  11.1 °C 41 °F /  5.0 °C 29.7in /  1006.1hPa SW 2mph /  3.2km/h 4.6mph /  7.4km/h 66% 0in /  0.0mm CLR
04:25 52 °F /  11.1 °C 41 °F /  5.0 °C 29.7in /  1006.1hPa SW 2mph /  3.2km/h 4.6mph /  7.4km/h 66% 0in /  0.0mm CLR
04:30 52 °F /  11.1 °C 41 °F /  5.0 °C 29.7in /  1006.1hPa SW 3mph /  4.8km/h 5mph /  8.0km/h 66% 0in /  0.0mm CLR
04:35 52.2 °F /  11.2 °C 41.9 °F /  5.5 °C 29.7in /  1006.4hPa ESE 3.1mph /  5.0km/h 3.5mph /  5.6km/h 68% 0in /  0.0mm CLR
04:40 52 °F /  11.1 °C 42.1 °F /  5.6 °C 29.7in /  1006.4hPa SSE 2mph /  3.2km/h 3mph /  4.8km/h 69% 0in /  0.0mm CLR
04:45 51.3 °F /  10.7 °C 41.7 °F /  5.4 °C 29.7in /  1006.4hPa ESE 2.4mph /  3.9km/h 2.4mph /  3.9km/h 70% 0in /  0.0mm CLR
04:50 50.9 °F /  10.5 °C 41.7 °F /  5.4 °C 29.7in /  1006.6hPa ESE 2mph /  3.2km/h 6mph /  9.7km/h 71% 0in /  0.0mm CLR
04:55 50.5 °F /  10.3 °C 41.5 °F /  5.3 °C 29.7in /  1006.6hPa SE 2.4mph /  3.9km/h 2.9mph /  4.7km/h 71% 0in /  0.0mm CLR
05:00 50.5 °F /  10.3 °C 41.5 °F /  5.3 °C 29.7in /  1006.6hPa SE 2mph /  3.2km/h 5mph /  8.0km/h 71% 0in /  0.0mm CLR
05:05 50.5 °F /  10.3 °C 41.2 °F /  5.1 °C 29.7in /  1006.8hPa SSE 2.9mph /  4.7km/h 3.5mph /  5.6km/h 70% 0in /  0.0mm CLR
05:10 50.7 °F /  10.4 °C 41.4 °F /  5.2 °C 29.7in /  1006.8hPa SSE 2mph /  3.2km/h 2.3mph /  3.7km/h 70% 0in /  0.0mm CLR
05:15 50.7 °F /  10.4 °C 40.5 °F /  4.7 °C 29.7in /  1006.8hPa WSW 2mph /  3.2km/h 5.2mph /  8.4km/h 68% 0in /  0.0mm CLR
05:20 51.3 °F /  10.7 °C 41 °F /  5.0 °C 29.7in /  1006.9hPa SSW 2mph /  3.2km/h 6mph /  9.7km/h 68% 0in /  0.0mm CLR
05:25 51.3 °F /  10.7 °C 41.2 °F /  5.1 °C 29.7in /  1006.9hPa South 2.4mph /  3.9km/h 4.6mph /  7.4km/h 68% 0in /  0.0mm CLR
05:30 51.3 °F /  10.7 °C 41.2 °F /  5.1 °C 29.7in /  1006.9hPa SSW 3mph /  4.8km/h 6mph /  9.7km/h 68% 0in /  0.0mm CLR
05:35 51.3 °F /  10.7 °C 40.6 °F /  4.8 °C 29.7in /  1007.2hPa West 3.6mph /  5.8km/h 5.8mph /  9.3km/h 67% 0in /  0.0mm CLR
05:40 51.3 °F /  10.7 °C 40.6 °F /  4.8 °C 29.7in /  1007.2hPa WSW 3mph /  4.8km/h 7mph /  11.3km/h 67% 0in /  0.0mm CLR
05:45 51.3 °F /  10.7 °C 40.6 °F /  4.8 °C 29.7in /  1007.2hPa West 3.6mph /  5.8km/h 4.6mph /  7.4km/h 67% 0in /  0.0mm CLR
05:50 51.3 °F /  10.7 °C 40.6 °F /  4.8 °C 29.7in /  1007.3hPa WSW 2.9mph /  4.7km/h 4.6mph /  7.4km/h 67% 0in /  0.0mm CLR
05:55 51.3 °F /  10.7 °C 40.6 °F /  4.8 °C 29.7in /  1007.3hPa SW 2.9mph /  4.7km/h 3.5mph /  5.6km/h 67% 0in /  0.0mm CLR
06:00 51.3 °F /  10.7 °C 40.6 °F /  4.8 °C 29.7in /  1007.3hPa SW 2mph /  3.2km/h 5mph /  8.0km/h 67% 0in /  0.0mm CLR
06:05 51.1 °F /  10.6 °C 41.4 °F /  5.2 °C 29.7in /  1007.2hPa South 2mph /  3.2km/h 5mph /  8.0km/h 69% 0in /  0.0mm CLR
06:10 50.7 °F /  10.4 °C 41.4 °F /  5.2 °C 29.7in /  1007.2hPa SSE 2mph /  3.2km/h 5mph /  8.0km/h 70% 0in /  0.0mm CLR
06:15 50.5 °F /  10.3 °C 41.5 °F /  5.3 °C 29.7in /  1007.2hPa SW 2.4mph /  3.9km/h 5.4mph /  8.7km/h 71% 0in /  0.0mm CLR
06:20 50.5 °F /  10.3 °C 41.5 °F /  5.3 °C 29.8in /  1007.4hPa SW 2mph /  3.2km/h 5mph /  8.0km/h 71% 0in /  0.0mm CLR
06:25 50.4 °F /  10.2 °C 41.7 °F /  5.4 °C 29.8in /  1007.4hPa SSE 2.9mph /  4.7km/h 5.8mph /  9.3km/h 72% 0in /  0.0mm CLR
06:30 49.8 °F /  9.9 °C 41.5 °F /  5.3 °C 29.8in /  1007.4hPa SSE 5mph /  8.0km/h 7mph /  11.3km/h 73% 0in /  0.0mm CLR
06:35 49.6 °F /  9.8 °C 41.7 °F /  5.4 °C 29.7in /  1007.3hPa SSE 4mph /  6.4km/h 5.8mph /  9.3km/h 74% 0in /  0.0mm CLR
06:40 49.5 °F /  9.7 °C 41.9 °F /  5.5 °C 29.7in /  1007.3hPa ESE 4mph /  6.4km/h 4.6mph /  7.4km/h 75% 0in /  0.0mm CLR
06:45 49.1 °F /  9.5 °C 41.5 °F /  5.3 °C 29.7in /  1007.3hPa ESE 4mph /  6.4km/h 3.1mph /  5.0km/h 75% 0in /  0.0mm CLR
06:50 48.9 °F /  9.4 °C 41.7 °F /  5.4 °C 29.8in /  1007.5hPa SSE 2.4mph /  3.9km/h 4.6mph /  7.4km/h 76% 0in /  0.0mm CLR
06:55 49.3 °F /  9.6 °C 41.4 °F /  5.2 °C 29.8in /  1007.5hPa SSE 2.4mph /  3.9km/h 5.8mph /  9.3km/h 74% 0in /  0.0mm CLR
07:00 49.5 °F /  9.7 °C 41.5 °F /  5.3 °C 29.8in /  1007.5hPa SSE 3mph /  4.8km/h 6mph /  9.7km/h 74% 0in /  0.0mm CLR
07:05 49.6 °F /  9.8 °C 41.4 °F /  5.2 °C 29.8in /  1007.6hPa SSE 3mph /  4.8km/h 4mph /  6.4km/h 73% 0in /  0.0mm CLR
07:10 49.8 °F /  9.9 °C 41.5 °F /  5.3 °C 29.8in /  1007.6hPa South 1.8mph /  2.9km/h 4.6mph /  7.4km/h 73% 0in /  0.0mm CLR
07:15 50 °F /  10.0 °C 41.7 °F /  5.4 °C 29.8in /  1007.6hPa South 2mph /  3.2km/h 4mph /  6.4km/h 73% 0in /  0.0mm CLR
07:20 49.8 °F /  9.9 °C 41.9 °F /  5.5 °C 29.8in /  1007.8hPa West 2mph /  3.2km/h 3.5mph /  5.6km/h 74% 0in /  0.0mm CLR
07:25 49.6 °F /  9.8 °C 41.7 °F /  5.4 °C 29.8in /  1007.8hPa West 2mph /  3.2km/h 2.3mph /  3.7km/h 74% 0in /  0.0mm CLR
07:30 49.5 °F /  9.7 °C 41.5 °F /  5.3 °C 29.8in /  1007.8hPa ESE 1.8mph /  2.9km/h 5.8mph /  9.3km/h 74% 0in /  0.0mm CLR
07:35 48.7 °F /  9.3 °C 41.2 °F /  5.1 °C 29.8in /  1008.2hPa SE 1.8mph /  2.9km/h 6.9mph /  11.1km/h 75% 0in /  0.0mm CLR
07:40 48.9 °F /  9.4 °C 40.6 °F /  4.8 °C 29.8in /  1008.2hPa South 4.3mph /  6.9km/h 5.8mph /  9.3km/h 73% 0in /  0.0mm CLR
07:45 49.6 °F /  9.8 °C 40.6 °F /  4.8 °C 29.8in /  1008.2hPa SSE 4.3mph /  6.9km/h 2.3mph /  3.7km/h 71% 0in /  0.0mm CLR
07:50 50.4 °F /  10.2 °C 41.4 °F /  5.2 °C 29.8in /  1008.5hPa SSE 2mph /  3.2km/h 2.3mph /  3.7km/h 71% 0in /  0.0mm CLR
07:55 51.1 °F /  10.6 °C 41.5 °F /  5.3 °C 29.8in /  1008.5hPa ENE 2mph /  3.2km/h 3.5mph /  5.6km/h 70% 0in /  0.0mm CLR
08:00 51.3 °F /  10.7 °C 41.9 °F /  5.5 °C 29.8in /  1008.5hPa ENE 2mph /  3.2km/h 3mph /  4.8km/h 70% 0in /  0.0mm CLR
08:05 51.6 °F /  10.9 °C 41.7 °F /  5.4 °C 29.8in /  1008.6hPa ENE 2mph /  3.2km/h 6mph /  9.7km/h 69% 0in /  0.0mm CLR
08:10 51.3 °F /  10.7 °C 41.4 °F /  5.2 °C 29.8in /  1008.6hPa SE 2mph /  3.2km/h 3.5mph /  5.6km/h 69% 0in /  0.0mm CLR
08:15 50.7 °F /  10.4 °C 41.7 °F /  5.4 °C 29.8in /  1008.6hPa SE 2mph /  3.2km/h 5.8mph /  9.3km/h 71% 0in /  0.0mm CLR
08:20 50.5 °F /  10.3 °C 41.5 °F /  5.3 °C 29.8in /  1008.9hPa SE 2.9mph /  4.7km/h 2.3mph /  3.7km/h 71% 0in /  0.0mm CLR
08:25 51.1 °F /  10.6 °C 42.1 °F /  5.6 °C 29.8in /  1008.9hPa SE 2.9mph /  4.7km/h   71% 0in /  0.0mm CLR
08:30 51.6 °F /  10.9 °C 42.3 °F /  5.7 °C 29.8in /  1008.9hPa Calm   3.5mph /  5.6km/h 70% 0in /  0.0mm CLR
08:35 52 °F /  11.1 °C 42.4 °F /  5.8 °C 29.8in /  1008.9hPa Calm   9mph /  14.5km/h 70% 0in /  0.0mm CLR
08:40 52.2 °F /  11.2 °C 42.3 °F /  5.7 °C 29.8in /  1008.9hPa SE 2mph /  3.2km/h   69% 0in /  0.0mm CLR
08:45 52.2 °F /  11.2 °C 41.9 °F /  5.5 °C 29.8in /  1008.9hPa SE 2mph /  3.2km/h   68% 0in /  0.0mm CLR
08:50 52.3 °F /  11.3 °C 41.7 °F /  5.4 °C 29.8in /  1009.0hPa Calm   2mph /  3.2km/h 67% 0in /  0.0mm CLR
08:55 52.7 °F /  11.5 °C 42.1 °F /  5.6 °C 29.8in /  1009.0hPa Calm   4.6mph /  7.4km/h 67% 0in /  0.0mm CLR
09:00 53.1 °F /  11.7 °C 42.1 °F /  5.6 °C 29.8in /  1009.0hPa West 2mph /  3.2km/h 6mph /  9.7km/h 66% 0in /  0.0mm CLR
09:05 53.2 °F /  11.8 °C 41.7 °F /  5.4 °C 29.8in /  1009.2hPa West 2mph /  3.2km/h 6mph /  9.7km/h 65% 0in /  0.0mm CLR
09:10 54 °F /  12.2 °C 42.1 °F /  5.6 °C 29.8in /  1009.2hPa SW 2mph /  3.2km/h   64% 0in /  0.0mm CLR
09:15 54.5 °F /  12.5 °C 41.7 °F /  5.4 °C 29.8in /  1009.2hPa WSW 2mph /  3.2km/h 3.5mph /  5.6km/h 62% 0in /  0.0mm CLR
09:20 54.9 °F /  12.7 °C 41.7 °F /  5.4 °C 29.8in /  1009.3hPa WNW 1.8mph /  2.9km/h 5.9mph /  9.5km/h 61% 0in /  0.0mm CLR
09:25 54.7 °F /  12.6 °C 41.9 °F /  5.5 °C 29.8in /  1009.3hPa NW 1.8mph /  2.9km/h 4.7mph /  7.6km/h 62% 0in /  0.0mm CLR
09:30 54.7 °F /  12.6 °C 41.9 °F /  5.5 °C 29.8in /  1009.3hPa West 5mph /  8.0km/h 8mph /  12.9km/h 62% 0in /  0.0mm CLR
09:35 55 °F /  12.8 °C 41.7 °F /  5.4 °C 29.8in /  1009.7hPa WSW 5mph /  8.0km/h 5mph /  8.0km/h 61% 0in /  0.0mm CLR
09:40 55.6 °F /  13.1 °C 41.9 °F /  5.5 °C 29.8in /  1009.7hPa South 2mph /  3.2km/h 5mph /  8.0km/h 60% 0in /  0.0mm CLR
09:45 55.9 °F /  13.3 °C 41.4 °F /  5.2 °C 29.8in /  1009.7hPa SSE 2.4mph /  3.9km/h 6.9mph /  11.1km/h 58% 0in /  0.0mm CLR
09:50 56.5 °F /  13.6 °C 42.3 °F /  5.7 °C 29.8in /  1009.9hPa SE 3.6mph /  5.8km/h 8.1mph /  13.0km/h 59% 0in /  0.0mm CLR
09:55 56.5 °F /  13.6 °C 41.9 °F /  5.5 °C 29.8in /  1009.9hPa WSW 3.6mph /  5.8km/h 2.4mph /  3.9km/h 58% 0in /  0.0mm CLR
10:00 56.8 °F /  13.8 °C 42.3 °F /  5.7 °C 29.8in /  1009.9hPa SW 3mph /  4.8km/h 7mph /  11.3km/h 58% 0in /  0.0mm CLR
10:05 57.4 °F /  14.1 °C 41.7 °F /  5.4 °C 29.8in /  1009.9hPa SW 3mph /  4.8km/h 8mph /  12.9km/h 56% 0in /  0.0mm CLR
10:10 57.7 °F /  14.3 °C 41.7 °F /  5.4 °C 29.8in /  1009.9hPa SSW 5mph /  8.0km/h 9mph /  14.5km/h 55% 0in /  0.0mm CLR
10:15 58.3 °F /  14.6 °C 40.6 °F /  4.8 °C 29.8in /  1009.9hPa West 5.2mph /  8.4km/h 5.8mph /  9.3km/h 52% 0in /  0.0mm CLR
10:20 58.6 °F /  14.8 °C 41.2 °F /  5.1 °C 29.8in /  1009.9hPa SSW 3.6mph /  5.8km/h 5.8mph /  9.3km/h 52% 0in /  0.0mm CLR
10:25 59.2 °F /  15.1 °C 40.5 °F /  4.7 °C 29.8in /  1009.9hPa SW 3.6mph /  5.8km/h 9.2mph /  14.8km/h 50% 0in /  0.0mm CLR
10:30 59.4 °F /  15.2 °C 40.6 °F /  4.8 °C 29.8in /  1009.9hPa West 4.3mph /  6.9km/h 8.1mph /  13.0km/h 50% 0in /  0.0mm CLR
10:35 59.5 °F /  15.3 °C 40.3 °F /  4.6 °C 29.8in /  1009.9hPa WSW 5mph /  8.0km/h 9mph /  14.5km/h 49% 0in /  0.0mm CLR
10:40 59.7 °F /  15.4 °C 39.9 °F /  4.4 °C 29.8in /  1009.9hPa SW 4.7mph /  7.6km/h 6.9mph /  11.1km/h 48% 0in /  0.0mm CLR
10:45 60.1 °F /  15.6 °C 40.8 °F /  4.9 °C 29.8in /  1009.9hPa SSW 4.7mph /  7.6km/h 4.6mph /  7.4km/h 49% 0in /  0.0mm CLR
10:50 60.4 °F /  15.8 °C 40.6 °F /  4.8 °C 29.8in /  1009.8hPa WNW 3.6mph /  5.8km/h 4.6mph /  7.4km/h 48% 0in /  0.0mm CLR
10:55 60.6 °F /  15.9 °C 40.3 °F /  4.6 °C 29.8in /  1009.8hPa SW 3.6mph /  5.8km/h 9.2mph /  14.8km/h 47% 0in /  0.0mm CLR
11:00 61.2 °F /  16.2 °C 40.6 °F /  4.8 °C 29.8in /  1009.8hPa WSW 5mph /  8.0km/h 9mph /  14.5km/h 47% 0in /  0.0mm CLR
11:05 61.5 °F /  16.4 °C 39.4 °F /  4.1 °C 29.8in /  1010.0hPa SSW 4.3mph /  6.9km/h 4.6mph /  7.4km/h 44% 0in /  0.0mm CLR
11:10 61.9 °F /  16.6 °C 39.7 °F /  4.3 °C 29.8in /  1010.0hPa West 3.1mph /  5.0km/h 3.5mph /  5.6km/h 44% 0in /  0.0mm CLR
11:15 62.1 °F /  16.7 °C 40.5 °F /  4.7 °C 29.8in /  1010.0hPa WSW 3.1mph /  5.0km/h 5.8mph /  9.3km/h 45% 0in /  0.0mm CLR
11:20 62.2 °F /  16.8 °C 39.9 °F /  4.4 °C 29.8in /  1010.0hPa SW 3.1mph /  5.0km/h 6.9mph /  11.1km/h 44% 0in /  0.0mm CLR
11:25 62.8 °F /  17.1 °C 38.7 °F /  3.7 °C 29.8in /  1010.0hPa WNW 3.1mph /  5.0km/h 4.6mph /  7.4km/h 41% 0in /  0.0mm CLR
11:30 63.3 °F /  17.4 °C 39.2 °F /  4.0 °C 29.8in /  1010.0hPa South 4mph /  6.4km/h 10mph /  16.1km/h 41% 0in /  0.0mm CLR
11:35 63.7 °F /  17.6 °C 37.6 °F /  3.1 °C 29.8in /  1009.9hPa SSW 4mph /  6.4km/h 13.8mph /  22.2km/h 38% 0in /  0.0mm CLR
11:40 64 °F /  17.8 °C 37.9 °F /  3.3 °C 29.8in /  1009.9hPa SSW 6.2mph /  10.0km/h 10.4mph /  16.7km/h 38% 0in /  0.0mm CLR
11:45 64 °F /  17.8 °C 37.9 °F /  3.3 °C 29.8in /  1009.9hPa WSW 6.2mph /  10.0km/h 6.9mph /  11.1km/h 38% 0in /  0.0mm CLR
11:50 64 °F /  17.8 °C 38.7 °F /  3.7 °C 29.8in /  1010.1hPa SSW 6mph /  9.7km/h 9mph /  14.5km/h 39% 0in /  0.0mm CLR
11:55 64.6 °F /  18.1 °C 37.8 °F /  3.2 °C 29.8in /  1010.1hPa SSW 6mph /  9.7km/h 16mph /  25.7km/h 37% 0in /  0.0mm CLR
12:00 64.6 °F /  18.1 °C 37 °F /  2.8 °C 29.8in /  1010.1hPa South 7mph /  11.3km/h 15mph /  24.1km/h 36% 0in /  0.0mm CLR
12:05 64.4 °F /  18.0 °C 37.6 °F /  3.1 °C 29.8in /  1010.0hPa SE 6.9mph /  11.1km/h 9.2mph /  14.8km/h 37% 0in /  0.0mm CLR
12:10 64.8 °F /  18.2 °C 37.9 °F /  3.3 °C 29.8in /  1010.0hPa SE 6.9mph /  11.1km/h 10.4mph /  16.7km/h 37% 0in /  0.0mm CLR
12:15 64.6 °F /  18.1 °C 37 °F /  2.8 °C 29.8in /  1010.0hPa South 6.9mph /  11.1km/h 9.2mph /  14.8km/h 36% 0in /  0.0mm CLR
12:20 64.6 °F /  18.1 °C 39.7 °F /  4.3 °C 29.8in /  1010.0hPa SSW 7.4mph /  11.9km/h 15mph /  24.1km/h 40% 0in /  0.0mm CLR
12:25 64.8 °F /  18.2 °C 39.2 °F /  4.0 °C 29.8in /  1010.0hPa SSE 7.4mph /  11.9km/h 12.7mph /  20.4km/h 39% 0in /  0.0mm CLR
12:30 65.1 °F /  18.4 °C 39.6 °F /  4.2 °C 29.8in /  1010.0hPa SE 10mph /  16.1km/h 15mph /  24.1km/h 39% 0in /  0.0mm CLR
12:35 64.9 °F /  18.3 °C 39.4 °F /  4.1 °C 29.8in /  1010.0hPa SE 10mph /  16.1km/h 15mph /  24.1km/h 39% 0in /  0.0mm CLR
12:40 64.6 °F /  18.1 °C 39 °F /  3.9 °C 29.8in /  1010.0hPa SSW 10mph /  16.1km/h 15mph /  24.1km/h 39% 0in /  0.0mm CLR
12:45 64.8 °F /  18.2 °C 39.9 °F /  4.4 °C 29.8in /  1010.0hPa SSE 10mph /  16.1km/h 11.5mph /  18.5km/h 40% 0in /  0.0mm CLR
12:50 64.8 °F /  18.2 °C 39.2 °F /  4.0 °C 29.8in /  1010.0hPa ESE 10mph /  16.1km/h 12.7mph /  20.4km/h 39% 0in /  0.0mm CLR
12:55 65.5 °F /  18.6 °C 39.9 °F /  4.4 °C 29.8in /  1010.0hPa SSE 10mph /  16.1km/h 9.2mph /  14.8km/h 39% 0in /  0.0mm CLR
13:00 65.7 °F /  18.7 °C 38.7 °F /  3.7 °C 29.8in /  1010.0hPa SSE 8mph /  12.9km/h 14mph /  22.5km/h 37% 0in /  0.0mm CLR
13:05 65.7 °F /  18.7 °C 37.9 °F /  3.3 °C 29.8in /  1009.9hPa SSW 8.1mph /  13.0km/h 10.4mph /  16.7km/h 36% 0in /  0.0mm CLR
13:09 65.7 °F /  18.7 °C 37.9 °F /  3.3 °C 29.8in /  1009.9hPa SE 6.9mph /  11.1km/h 9.2mph /  14.8km/h 36% 0in /  0.0mm CLR
13:15 66 °F /  18.9 °C 38.3 °F /  3.5 °C 29.8in /  1009.9hPa ESE 6.9mph /  11.1km/h 12.7mph /  20.4km/h 36% 0in /  0.0mm CLR
13:20 66.4 °F /  19.1 °C 39.4 °F /  4.1 °C 29.8in /  1009.6hPa ESE 7.4mph /  11.9km/h 6.9mph /  11.1km/h 37% 0in /  0.0mm CLR
13:25 66.6 °F /  19.2 °C 39.6 °F /  4.2 °C 29.8in /  1009.6hPa SSE 7.4mph /  11.9km/h 15mph /  24.1km/h 37% 0in /  0.0mm CLR
13:30 66.4 °F /  19.1 °C 39.4 °F /  4.1 °C 29.8in /  1009.6hPa SSE 8.7mph /  14.0km/h 11.5mph /  18.5km/h 37% 0in /  0.0mm CLR
13:35 66 °F /  18.9 °C 40.5 °F /  4.7 °C 29.8in /  1009.4hPa SSE 9mph /  14.5km/h 18mph /  29.0km/h 39% 0in /  0.0mm CLR
13:40 65.8 °F /  18.8 °C 40.8 °F /  4.9 °C 29.8in /  1009.4hPa SSE 10mph /  16.1km/h 17mph /  27.4km/h 40% 0in /  0.0mm CLR
13:45 66 °F /  18.9 °C 41 °F /  5.0 °C 29.8in /  1009.4hPa ESE 10mph /  16.1km/h 10.4mph /  16.7km/h 40% 0in /  0.0mm CLR
13:50 66.4 °F /  19.1 °C 41.4 °F /  5.2 °C 29.8in /  1009.2hPa SE 8.7mph /  14.0km/h 11.5mph /  18.5km/h 40% 0in /  0.0mm CLR
13:55 66.6 °F /  19.2 °C 42.1 °F /  5.6 °C 29.8in /  1009.2hPa SSE 8.7mph /  14.0km/h 16.1mph /  25.9km/h 41% 0in /  0.0mm CLR
14:00 66.6 °F /  19.2 °C 41.5 °F /  5.3 °C 29.8in /  1009.2hPa SE 12mph /  19.3km/h 19mph /  30.6km/h 40% 0in /  0.0mm CLR
14:05 66.2 °F /  19.0 °C 41.2 °F /  5.1 °C 29.8in /  1009.2hPa SSE 11.2mph /  18.0km/h 16.1mph /  25.9km/h 40% 0in /  0.0mm CLR
14:10 66.4 °F /  19.1 °C 42.1 °F /  5.6 °C 29.8in /  1009.2hPa SSE 11.4mph /  18.3km/h 20.7mph /  33.3km/h 41% 0in /  0.0mm CLR
14:15 66.4 °F /  19.1 °C 40.6 °F /  4.8 °C 29.8in /  1009.2hPa South 11.4mph /  18.3km/h 13.8mph /  22.2km/h 39% 0in /  0.0mm CLR
14:20 66.2 °F /  19.0 °C 41.2 °F /  5.1 °C 29.8in /  1009.1hPa SSE 12.3mph /  19.8km/h 15mph /  24.1km/h 40% 0in /  0.0mm CLR
14:25 66.7 °F /  19.3 °C 40.3 °F /  4.6 °C 29.8in /  1009.1hPa SSE 12.3mph /  19.8km/h 13.8mph /  22.2km/h 38% 0in /  0.0mm CLR
14:30 66.9 °F /  19.4 °C 41.2 °F /  5.1 °C 29.8in /  1009.1hPa SSE 10.2mph /  16.4km/h 15mph /  24.1km/h 39% 0in /  0.0mm CLR
14:35 66.9 °F /  19.4 °C 41.9 °F /  5.5 °C 29.8in /  1009.0hPa SSE 10mph /  16.1km/h 17mph /  27.4km/h 40% 0in /  0.0mm CLR
14:40 66.9 °F /  19.4 °C 43.2 °F /  6.2 °C 29.8in /  1009.0hPa SSE 11.4mph /  18.3km/h 17.3mph /  27.8km/h 42% 0in /  0.0mm CLR
14:45 66.9 °F /  19.4 °C 42.4 °F /  5.8 °C 29.8in /  1009.0hPa SSE 11.4mph /  18.3km/h 20.7mph /  33.3km/h 41% 0in /  0.0mm CLR
14:50 66.9 °F /  19.4 °C 43.7 °F /  6.5 °C 29.8in /  1008.9hPa South 13mph /  20.9km/h 18.4mph /  29.6km/h 43% 0in /  0.0mm CLR
14:55 66.9 °F /  19.4 °C 44.2 °F /  6.8 °C 29.8in /  1008.9hPa SSE 13mph /  20.9km/h 20.7mph /  33.3km/h 44% 0in /  0.0mm CLR
15:00 67.1 °F /  19.5 °C 44.4 °F /  6.9 °C 29.8in /  1008.9hPa SSE 13mph /  20.9km/h 18mph /  29.0km/h 44% 0in /  0.0mm CLR
15:05 67.1 °F /  19.5 °C 43.9 °F /  6.6 °C 29.8in /  1009.0hPa SE 12.5mph /  20.1km/h 17.3mph /  27.8km/h 43% 0in /  0.0mm CLR
15:10 67.3 °F /  19.6 °C 44.1 °F /  6.7 °C 29.8in /  1009.0hPa ESE 12.3mph /  19.8km/h 17.3mph /  27.8km/h 43% 0in /  0.0mm CLR
15:15 67.6 °F /  19.8 °C 45 °F /  7.2 °C 29.8in /  1009.0hPa South 12.3mph /  19.8km/h 15mph /  24.1km/h 44% 0in /  0.0mm CLR
15:20 67.8 °F /  19.9 °C 44.4 °F /  6.9 °C 29.8in /  1008.8hPa SSE 10mph /  16.1km/h 19mph /  30.6km/h 43% 0in /  0.0mm CLR
15:25 67.6 °F /  19.8 °C 45 °F /  7.2 °C 29.8in /  1008.8hPa SE 10.7mph /  17.2km/h 19.6mph /  31.5km/h 44% 0in /  0.0mm CLR
15:30 67.6 °F /  19.8 °C 44.2 °F /  6.8 °C 29.8in /  1008.8hPa SSE 11.8mph /  19.0km/h 20.4mph /  32.8km/h 43% 0in /  0.0mm CLR
15:35 67.5 °F /  19.7 °C 44.8 °F /  7.1 °C 29.8in /  1008.7hPa South 11.8mph /  19.0km/h 21.9mph /  35.2km/h 44% 0in /  0.0mm CLR
15:40 67.6 °F /  19.8 °C 45.5 °F /  7.5 °C 29.8in /  1008.7hPa SE 13mph /  20.9km/h 19mph /  30.6km/h 45% 0in /  0.0mm CLR
15:45 67.6 °F /  19.8 °C 46.8 °F /  8.2 °C 29.8in /  1008.7hPa SSE 12.5mph /  20.1km/h 18.4mph /  29.6km/h 47% 0in /  0.0mm CLR
15:50 67.5 °F /  19.7 °C 45.9 °F /  7.7 °C 29.8in /  1008.6hPa SE 12.5mph /  20.1km/h 17.5mph /  28.2km/h 46% 0in /  0.0mm CLR
15:55 67.3 °F /  19.6 °C 46.4 °F /  8.0 °C 29.8in /  1008.6hPa SE 12.5mph /  20.1km/h 16.3mph /  26.2km/h 47% 0in /  0.0mm CLR
16:00 67.6 °F /  19.8 °C 47.3 °F /  8.5 °C 29.8in /  1008.6hPa SE 12mph /  19.3km/h 17mph /  27.4km/h 48% 0in /  0.0mm CLR
16:05 67.8 °F /  19.9 °C 46.2 °F /  7.9 °C 29.8in /  1008.5hPa SSE 11.4mph /  18.3km/h 18.4mph /  29.6km/h 46% 0in /  0.0mm CLR
16:10 67.8 °F /  19.9 °C 44.4 °F /  6.9 °C 29.8in /  1008.5hPa ESE 11.4mph /  18.3km/h 20.7mph /  33.3km/h 43% 0in /  0.0mm CLR
16:15 68 °F /  20.0 °C 45.9 °F /  7.7 °C 29.8in /  1008.5hPa SE 11.4mph /  18.3km/h 10.4mph /  16.7km/h 45% 0in /  0.0mm CLR
16:20 68.4 °F /  20.2 °C 45.7 °F /  7.6 °C 29.8in /  1008.2hPa SSE 12mph /  19.3km/h 21mph /  33.8km/h 44% 0in /  0.0mm CLR
16:25 68.2 °F /  20.1 °C 45.3 °F /  7.4 °C 29.8in /  1008.2hPa SSE 11.4mph /  18.3km/h 19.6mph /  31.5km/h 44% 0in /  0.0mm CLR
16:30 68 °F /  20.0 °C 45.9 °F /  7.7 °C 29.8in /  1008.2hPa SSE 13mph /  20.9km/h 19.6mph /  31.5km/h 45% 0in /  0.0mm CLR
16:35 68 °F /  20.0 °C 45.9 °F /  7.7 °C 29.8in /  1008.3hPa South 13mph /  20.9km/h 19.6mph /  31.5km/h 45% 0in /  0.0mm CLR
16:40 68.2 °F /  20.1 °C 45.3 °F /  7.4 °C 29.8in /  1008.3hPa SSE 12.5mph /  20.1km/h 18.4mph /  29.6km/h 44% 0in /  0.0mm CLR
16:45 67.8 °F /  19.9 °C 45.7 °F /  7.6 °C 29.8in /  1008.3hPa SSE 12.5mph /  20.1km/h 20.7mph /  33.3km/h 45% 0in /  0.0mm CLR
16:50 67.6 °F /  19.8 °C 45.5 °F /  7.5 °C 29.8in /  1008.2hPa South 14mph /  22.5km/h 24mph /  38.6km/h 45% 0in /  0.0mm CLR
16:55 67.8 °F /  19.9 °C 46.8 °F /  8.2 °C 29.8in /  1008.2hPa SE 14mph /  22.5km/h 17.3mph /  27.8km/h 47% 0in /  0.0mm CLR
17:00 68.2 °F /  20.1 °C 46.6 °F /  8.1 °C 29.8in /  1008.2hPa SSE 12mph /  19.3km/h 18mph /  29.0km/h 46% 0in /  0.0mm CLR
17:05 68.2 °F /  20.1 °C 46.6 °F /  8.1 °C 29.8in /  1008.0hPa SSE 11.8mph /  19.0km/h 12.7mph /  20.4km/h 46% 0in /  0.0mm CLR
17:10 68.5 °F /  20.3 °C 46.2 °F /  7.9 °C 29.8in /  1008.0hPa SSE 12mph /  19.3km/h 17mph /  27.4km/h 45% 0in /  0.0mm CLR
17:15 68.7 °F /  20.4 °C 46.6 °F /  8.1 °C 29.8in /  1008.0hPa South 11.4mph /  18.3km/h 18.4mph /  29.6km/h 45% 0in /  0.0mm CLR
17:20 68.5 °F /  20.3 °C 46.9 °F /  8.3 °C 29.8in /  1008.0hPa South 10.7mph /  17.2km/h 16.1mph /  25.9km/h 46% 0in /  0.0mm CLR
17:25 68.5 °F /  20.3 °C 45.9 °F /  7.7 °C 29.8in /  1008.0hPa SSE 10.7mph /  17.2km/h 16.1mph /  25.9km/h 44% 0in /  0.0mm CLR
17:30 68.5 °F /  20.3 °C 46.2 °F /  7.9 °C 29.8in /  1008.0hPa South 10.7mph /  17.2km/h 18.4mph /  29.6km/h 45% 0in /  0.0mm CLR
17:35 68.5 °F /  20.3 °C 46.9 °F /  8.3 °C 29.8in /  1007.9hPa SSE 10.7mph /  17.2km/h 19.6mph /  31.5km/h 46% 0in /  0.0mm CLR
17:40 68.5 °F /  20.3 °C 47.7 °F /  8.7 °C 29.8in /  1007.9hPa South 12mph /  19.3km/h 20mph /  32.2km/h 47% 0in /  0.0mm CLR
17:45 68.7 °F /  20.4 °C 47.1 °F /  8.4 °C 29.8in /  1007.9hPa South 11.4mph /  18.3km/h 15.2mph /  24.5km/h 46% 0in /  0.0mm CLR
17:50 68.4 °F /  20.2 °C 46.8 °F /  8.2 °C 29.8in /  1008.0hPa SE 12.3mph /  19.8km/h 16.1mph /  25.9km/h 46% 0in /  0.0mm CLR
17:55 68.5 °F /  20.3 °C 47.5 °F /  8.6 °C 29.8in /  1008.0hPa South 12.3mph /  19.8km/h 15.9mph /  25.6km/h 47% 0in /  0.0mm CLR
18:00 68.4 °F /  20.2 °C 48.6 °F /  9.2 °C 29.8in /  1008.0hPa SSE 12mph /  19.3km/h 18mph /  29.0km/h 49% 0in /  0.0mm CLR
18:05 68.4 °F /  20.2 °C 48.6 °F /  9.2 °C 29.8in /  1007.9hPa SE 11.2mph /  18.0km/h 15mph /  24.1km/h 49% 0in /  0.0mm CLR
18:10 68.4 °F /  20.2 °C 48.9 °F /  9.4 °C 29.8in /  1007.9hPa SSE 13mph /  20.9km/h 19mph /  30.6km/h 50% 0in /  0.0mm CLR
18:15 68.2 °F /  20.1 °C 48.4 °F /  9.1 °C 29.8in /  1007.9hPa SSW 12.3mph /  19.8km/h 16.1mph /  25.9km/h 49% 0in /  0.0mm CLR
18:20 68.5 °F /  20.3 °C 49.3 °F /  9.6 °C 29.8in /  1008.0hPa SSE 11.8mph /  19.0km/h 13.8mph /  22.2km/h 50% 0in /  0.0mm CLR
18:25 68.4 °F /  20.2 °C 47.8 °F /  8.8 °C 29.8in /  1008.0hPa SSE 11.8mph /  19.0km/h 20.7mph /  33.3km/h 48% 0in /  0.0mm CLR
18:30 68 °F /  20.0 °C 49.3 °F /  9.6 °C 29.8in /  1008.0hPa SSE 11.2mph /  18.0km/h 16.1mph /  25.9km/h 51% 0in /  0.0mm CLR
18:35 67.8 °F /  19.9 °C 48.9 °F /  9.4 °C 29.8in /  1008.1hPa SE 12mph /  19.3km/h 20mph /  32.2km/h 51% 0in /  0.0mm CLR
18:40 67.5 °F /  19.7 °C 48.7 °F /  9.3 °C 29.8in /  1008.1hPa SSE 12.3mph /  19.8km/h 16.1mph /  25.9km/h 51% 0in /  0.0mm CLR
18:45 67.5 °F /  19.7 °C 49.3 °F /  9.6 °C 29.8in /  1008.1hPa SE 12.3mph /  19.8km/h 16.1mph /  25.9km/h 52% 0in /  0.0mm CLR
18:50 67.5 °F /  19.7 °C 49.6 °F /  9.8 °C 29.8in /  1008.0hPa SSE 12mph /  19.3km/h 21mph /  33.8km/h 53% 0in /  0.0mm CLR
18:55 67.6 °F /  19.8 °C 49.5 °F /  9.7 °C 29.8in /  1008.0hPa SE 11.2mph /  18.0km/h 15.2mph /  24.5km/h 52% 0in /  0.0mm CLR
19:00 67.3 °F /  19.6 °C 50.2 °F /  10.1 °C 29.8in /  1008.0hPa SSE 12mph /  19.3km/h 22mph /  35.4km/h 54% 0in /  0.0mm CLR
19:05 66.9 °F /  19.4 °C 50.2 °F /  10.1 °C 29.8in /  1008.0hPa South 11.2mph /  18.0km/h 13.8mph /  22.2km/h 55% 0in /  0.0mm CLR
19:10 66.9 °F /  19.4 °C 50.7 °F /  10.4 °C 29.8in /  1008.0hPa SSE 11.2mph /  18.0km/h 15mph /  24.1km/h 56% 0in /  0.0mm CLR
19:15 66.9 °F /  19.4 °C 51.3 °F /  10.7 °C 29.8in /  1008.0hPa SE 11.2mph /  18.0km/h 17.3mph /  27.8km/h 57% 0in /  0.0mm CLR
19:20 66.6 °F /  19.2 °C 51.3 °F /  10.7 °C 29.8in /  1008.1hPa South 9.7mph /  15.6km/h 18.4mph /  29.6km/h 58% 0in /  0.0mm CLR
19:25 66 °F /  18.9 °C 51.3 °F /  10.7 °C 29.8in /  1008.1hPa SE 9.7mph /  15.6km/h 16.3mph /  26.2km/h 59% 0in /  0.0mm CLR
19:30 66 °F /  18.9 °C 51.3 °F /  10.7 °C 29.8in /  1008.1hPa South 11.4mph /  18.3km/h 13.8mph /  22.2km/h 59% 0in /  0.0mm CLR
19:35 65.8 °F /  18.8 °C 51.1 °F /  10.6 °C 29.8in /  1008.3hPa South 12mph /  19.3km/h 16mph /  25.7km/h 59% 0in /  0.0mm CLR
19:40 65.5 °F /  18.6 °C 50.4 °F /  10.2 °C 29.8in /  1008.3hPa SSE 9.7mph /  15.6km/h 15mph /  24.1km/h 58% 0in /  0.0mm CLR
19:45 65.5 °F /  18.6 °C 50.4 °F /  10.2 °C 29.8in /  1008.3hPa SSE 9.7mph /  15.6km/h 13.7mph /  22.0km/h 58% 0in /  0.0mm CLR
19:50 65.1 °F /  18.4 °C 50.4 °F /  10.2 °C 29.8in /  1008.4hPa South 10.2mph /  16.4km/h 13.8mph /  22.2km/h 59% 0in /  0.0mm CLR
19:55 65.1 °F /  18.4 °C 50.9 °F /  10.5 °C 29.8in /  1008.4hPa SSE 10.2mph /  16.4km/h 16.1mph /  25.9km/h 60% 0in /  0.0mm CLR
20:00 65.1 °F /  18.4 °C 50.7 °F /  10.4 °C 29.8in /  1008.4hPa South 9mph /  14.5km/h 13mph /  20.9km/h 60% 0in /  0.0mm CLR
20:05 64.9 °F /  18.3 °C 50.7 °F /  10.4 °C 29.8in /  1008.2hPa SSE 9mph /  14.5km/h 15mph /  24.1km/h 60% 0in /  0.0mm CLR
20:10 64.9 °F /  18.3 °C 50.4 °F /  10.2 °C 29.8in /  1008.2hPa South 8.5mph /  13.7km/h 10.4mph /  16.7km/h 59% 0in /  0.0mm CLR
20:15 64.8 °F /  18.2 °C 50.2 °F /  10.1 °C 29.8in /  1008.2hPa South 8.5mph /  13.7km/h 15mph /  24.1km/h 59% 0in /  0.0mm CLR
20:20 64.8 °F /  18.2 °C 50.5 °F /  10.3 °C 29.8in /  1008.3hPa SSE 8.5mph /  13.7km/h 8.1mph /  13.0km/h 60% 0in /  0.0mm CLR
20:25 64.8 °F /  18.2 °C 50.5 °F /  10.3 °C 29.8in /  1008.3hPa SSE 8.5mph /  13.7km/h 3.5mph /  5.6km/h 60% 0in /  0.0mm CLR
20:30 64.9 °F /  18.3 °C 50.7 °F /  10.4 °C 29.8in /  1008.3hPa South 3mph /  4.8km/h 8mph /  12.9km/h 60% 0in /  0.0mm CLR
20:35 64.8 °F /  18.2 °C 50.5 °F /  10.3 °C 29.8in /  1008.5hPa South 3.1mph /  5.0km/h 12.7mph /  20.4km/h 60% 0in /  0.0mm CLR
20:40 64.2 °F /  17.9 °C 50 °F /  10.0 °C 29.8in /  1008.5hPa South 6.4mph /  10.3km/h 9.2mph /  14.8km/h 60% 0in /  0.0mm CLR
20:45 64.2 °F /  17.9 °C 50 °F /  10.0 °C 29.8in /  1008.5hPa ESE 6.4mph /  10.3km/h 5.4mph /  8.7km/h 60% 0in /  0.0mm CLR
20:50 64.2 °F /  17.9 °C 50 °F /  10.0 °C 29.8in /  1008.6hPa ENE 4mph /  6.4km/h 4.6mph /  7.4km/h 60% 0in /  0.0mm CLR
20:55 64 °F /  17.8 °C 50.7 °F /  10.4 °C 29.8in /  1008.6hPa NE 4mph /  6.4km/h 4.6mph /  7.4km/h 62% 0in /  0.0mm CLR
21:00 63.9 °F /  17.7 °C 50.9 °F /  10.5 °C 29.8in /  1008.6hPa NNE 2mph /  3.2km/h 5mph /  8.0km/h 63% 0in /  0.0mm CLR
21:05 63.5 °F /  17.5 °C 49.8 °F /  9.9 °C 29.8in /  1008.9hPa North 2.9mph /  4.7km/h 4.6mph /  7.4km/h 61% 0in /  0.0mm CLR
21:10 63.3 °F /  17.4 °C 50.2 °F /  10.1 °C 29.8in /  1008.9hPa NE 2.4mph /  3.9km/h 4.6mph /  7.4km/h 62% 0in /  0.0mm CLR
21:15 63.3 °F /  17.4 °C 50.9 °F /  10.5 °C 29.8in /  1008.9hPa NNW 2.4mph /  3.9km/h 3.5mph /  5.6km/h 64% 0in /  0.0mm CLR
21:20 63.1 °F /  17.3 °C 50.7 °F /  10.4 °C 29.8in /  1009.2hPa NNW 2mph /  3.2km/h 3.5mph /  5.6km/h 64% 0in /  0.0mm CLR
21:25 63 °F /  17.2 °C 50.2 °F /  10.1 °C 29.8in /  1009.2hPa NE 2mph /  3.2km/h 2.3mph /  3.7km/h 63% 0in /  0.0mm CLR
21:30 63 °F /  17.2 °C 50.5 °F /  10.3 °C 29.8in /  1009.2hPa SSW 1.8mph /  2.9km/h 4.6mph /  7.4km/h 64% 0in /  0.0mm CLR
21:35 63 °F /  17.2 °C 50.5 °F /  10.3 °C 29.8in /  1009.3hPa South 2mph /  3.2km/h 5mph /  8.0km/h 64% 0in /  0.0mm CLR
21:40 62.8 °F /  17.1 °C 51.3 °F /  10.7 °C 29.8in /  1009.3hPa SE 1.8mph /  2.9km/h 4.6mph /  7.4km/h 66% 0in /  0.0mm CLR
21:45 62.4 °F /  16.9 °C 51.6 °F /  10.9 °C 29.8in /  1009.3hPa East 1.8mph /  2.9km/h 4.6mph /  7.4km/h 68% 0in /  0.0mm CLR
21:50 62.1 °F /  16.7 °C 51.8 °F /  11.0 °C 29.8in /  1009.4hPa East 2.9mph /  4.7km/h 4.6mph /  7.4km/h 69% 0in /  0.0mm CLR
21:55 61.7 °F /  16.5 °C 51.8 °F /  11.0 °C 29.8in /  1009.4hPa East 2.9mph /  4.7km/h 4.6mph /  7.4km/h 70% 0in /  0.0mm CLR
22:00 61.3 °F /  16.3 °C 52 °F /  11.1 °C 29.8in /  1009.4hPa East 3mph /  4.8km/h 9mph /  14.5km/h 71% 0in /  0.0mm CLR
22:05 61 °F /  16.1 °C 52 °F /  11.1 °C 29.8in /  1009.6hPa ESE 3mph /  4.8km/h 11mph /  17.7km/h 72% 0in /  0.0mm CLR
22:10 61 °F /  16.1 °C 52 °F /  11.1 °C 29.8in /  1009.6hPa SE 4.3mph /  6.9km/h 4.6mph /  7.4km/h 72% 0in /  0.0mm CLR
22:15 61 °F /  16.1 °C 52 °F /  11.1 °C 29.8in /  1009.6hPa SE 4.3mph /  6.9km/h   72% 0in /  0.0mm CLR
22:20 61 °F /  16.1 °C 51.4 °F /  10.8 °C 29.8in /  1010.0hPa SE 1.8mph /  2.9km/h 2.3mph /  3.7km/h 71% 0in /  0.0mm CLR
22:25 61 °F /  16.1 °C 52 °F /  11.1 °C 29.8in /  1010.0hPa West 1.8mph /  2.9km/h 2.4mph /  3.9km/h 72% 0in /  0.0mm CLR
22:30 61 °F /  16.1 °C 52 °F /  11.1 °C 29.8in /  1010.0hPa West 2mph /  3.2km/h   72% 0in /  0.0mm CLR
22:35 60.6 °F /  15.9 °C 52 °F /  11.1 °C 29.8in /  1010.0hPa West 2mph /  3.2km/h   73% 0in /  0.0mm CLR
22:40 60.6 °F /  15.9 °C 52 °F /  11.1 °C 29.8in /  1010.0hPa Calm     73% 0in /  0.0mm CLR
22:45 60.6 °F /  15.9 °C 52 °F /  11.1 °C 29.8in /  1010.0hPa Calm     73% 0in /  0.0mm CLR
22:50 60.6 °F /  15.9 °C 52.3 °F /  11.3 °C 29.8in /  1010.5hPa Calm     74% 0in /  0.0mm CLR
22:55 60.4 °F /  15.8 °C 52.2 °F /  11.2 °C 29.8in /  1010.5hPa Calm   4.6mph /  7.4km/h 74% 0in /  0.0mm CLR
23:00 60.4 °F /  15.8 °C 52.2 °F /  11.2 °C 29.8in /  1010.5hPa NW 2mph /  3.2km/h 4mph /  6.4km/h 74% 0in /  0.0mm CLR
23:05 60.3 °F /  15.7 °C 52 °F /  11.1 °C 29.8in /  1010.5hPa North 2mph /  3.2km/h 5mph /  8.0km/h 74% 0in /  0.0mm CLR
23:10 60.1 °F /  15.6 °C 52.2 °F /  11.2 °C 29.8in /  1010.5hPa ESE 2.9mph /  4.7km/h 4.7mph /  7.6km/h 75% 0in /  0.0mm CLR
23:15 60.1 °F /  15.6 °C 51.8 °F /  11.0 °C 29.8in /  1010.5hPa South 2.9mph /  4.7km/h 5.9mph /  9.5km/h 74% 0in /  0.0mm CLR
23:20 60.3 °F /  15.7 °C 51.6 °F /  10.9 °C 29.8in /  1010.3hPa SSW 3.6mph /  5.8km/h 5.8mph /  9.3km/h 73% 0in /  0.0mm CLR
23:25 60.4 °F /  15.8 °C 51.6 °F /  10.9 °C 29.8in /  1010.3hPa WSW 3.6mph /  5.8km/h 4.6mph /  7.4km/h 73% 0in /  0.0mm CLR
23:30 60.4 °F /  15.8 °C 51.4 °F /  10.8 °C 29.8in /  1010.3hPa South 3.6mph /  5.8km/h 5.8mph /  9.3km/h 72% 0in /  0.0mm CLR
23:35 60.6 °F /  15.9 °C 51.4 °F /  10.8 °C 29.8in /  1010.2hPa South 3.6mph /  5.8km/h 5.8mph /  9.3km/h 72% 0in /  0.0mm CLR
23:40 60.8 °F /  16.0 °C 51.6 °F /  10.9 °C 29.8in /  1010.2hPa ESE 3.6mph /  5.8km/h 4.6mph /  7.4km/h 72% 0in /  0.0mm CLR
23:45 60.4 °F /  15.8 °C 51.3 °F /  10.7 °C 29.8in /  1010.2hPa SE 3mph /  4.8km/h 9mph /  14.5km/h 72% 0in /  0.0mm CLR
23:50 59.7 °F /  15.4 °C 51.1 °F /  10.6 °C 29.8in /  1010.0hPa ESE 5mph /  8.0km/h 8mph /  12.9km/h 73% 0in /  0.0mm CLR
23:55 59.4 °F /  15.2 °C 51.1 °F /  10.6 °C 29.8in /  1010.0hPa ESE 4.7mph /  7.6km/h 5.8mph /  9.3km/h 74% 0in /  0.0mm CLR
Murcia-Puente Tocinos, España
Compliments of Weather Underground - 2.75 mb

La estación de MeteoMurcia.com, publica sus datos en los siguientes proyectos:

Weather Underground PWS IMURCIAP2 Meteoclimatic www.awekas.at

W3Counter
Web Analytics